sensor_id;sensor_type;location;lat;lon;timestamp;pressure;altitude;pressure_sealevel;temperature;humidity
75697;BME280;64312;44.738;20.612;2023-04-10T00:02:16;100827.06;;;7.76;nan
75697;BME280;64312;44.738;20.612;2023-04-10T00:04:42;100821.69;;;7.68;76.71
75697;BME280;64312;44.738;20.612;2023-04-10T00:07:07;100816.50;;;7.75;76.79
75697;BME280;64312;44.738;20.612;2023-04-10T00:09:33;100779.63;;;7.60;77.08
75697;BME280;64312;44.738;20.612;2023-04-10T00:11:59;100808.84;;;7.80;76.82
75697;BME280;64312;44.738;20.612;2023-04-10T00:14:25;100612.41;;;6.78;76.21
75697;BME280;64312;44.738;20.612;2023-04-10T00:16:50;100774.31;;;7.85;77.41
75697;BME280;64312;44.738;20.612;2023-04-10T00:19:16;100776.66;;;7.80;76.79
75697;BME280;64312;44.738;20.612;2023-04-10T00:21:42;100619.84;;;7.01;76.02
75697;BME280;64312;44.738;20.612;2023-04-10T00:24:08;100761.09;;;7.83;77.11
75697;BME280;64312;44.738;20.612;2023-04-10T00:26:36;100813.31;;;8.30;77.04
75697;BME280;64312;44.738;20.612;2023-04-10T00:29:02;100818.53;;;8.31;76.33
75697;BME280;64312;44.738;20.612;2023-04-10T00:31:28;100797.38;;;8.28;76.00
75697;BME280;64312;44.738;20.612;2023-04-10T00:33:54;100785.81;;;8.20;76.43
75697;BME280;64312;44.738;20.612;2023-04-10T00:36:20;100793.50;;;8.06;75.88
75697;BME280;64312;44.738;20.612;2023-04-10T00:38:46;100789.28;;;8.04;75.42
75697;BME280;64312;44.738;20.612;2023-04-10T00:41:12;100796.53;;;8.20;75.69
75697;BME280;64312;44.738;20.612;2023-04-10T00:43:38;100793.81;;;8.03;75.22
75697;BME280;64312;44.738;20.612;2023-04-10T00:46:04;100731.78;;;7.82;75.85
75697;BME280;64312;44.738;20.612;2023-04-10T00:48:30;100782.25;;;8.03;75.96
75697;BME280;64312;44.738;20.612;2023-04-10T00:50:56;100797.03;;;8.15;75.82
75697;BME280;64312;44.738;20.612;2023-04-10T00:53:22;100526.41;;;6.65;75.53
75697;BME280;64312;44.738;20.612;2023-04-10T00:55:48;100752.75;;;7.95;75.96
75697;BME280;64312;44.738;20.612;2023-04-10T00:58:15;100787.00;;;8.25;75.79
75697;BME280;64312;44.738;20.612;2023-04-10T01:00:41;100775.25;;;8.26;76.21
75697;BME280;64312;44.738;20.612;2023-04-10T01:03:08;100672.81;;;7.74;75.76
75697;BME280;64312;44.738;20.612;2023-04-10T01:06:13;100620.16;;;7.48;75.54
75697;BME280;64312;44.738;20.612;2023-04-10T01:09:16;100786.72;;;8.45;76.50
75697;BME280;64312;44.738;20.612;2023-04-10T01:11:57;100397.38;;;6.21;74.97
75697;BME280;64312;44.738;20.612;2023-04-10T01:14:48;100792.09;;;8.53;75.40
75697;BME280;64312;44.738;20.612;2023-04-10T01:17:40;100820.28;;;8.65;75.20
75697;BME280;64312;44.738;20.612;2023-04-10T01:20:18;100799.63;;;8.74;75.91
75697;BME280;64312;44.738;20.612;2023-04-10T01:25:40;100792.25;;;8.67;76.08
75697;BME280;64312;44.738;20.612;2023-04-10T01:28:20;100790.91;;;8.80;75.34
75697;BME280;64312;44.738;20.612;2023-04-10T01:30:56;100770.78;;;8.67;76.26
75697;BME280;64312;44.738;20.612;2023-04-10T01:33:30;100796.59;;;8.85;75.10
75697;BME280;64312;44.738;20.612;2023-04-10T01:36:01;100796.44;;;8.86;75.40
75697;BME280;64312;44.738;20.612;2023-04-10T01:38:28;100799.94;;;8.87;76.55
75697;BME280;64312;44.738;20.612;2023-04-10T01:40:56;100797.97;;;8.89;75.47
75697;BME280;64312;44.738;20.612;2023-04-10T01:43:27;100815.75;;;8.90;76.64
75697;BME280;64312;44.738;20.612;2023-04-10T01:45:55;100733.72;;;8.38;75.41
75697;BME280;64312;44.738;20.612;2023-04-10T01:48:21;100755.00;;;8.40;76.29
75697;BME280;64312;44.738;20.612;2023-04-10T01:50:47;100743.78;;;8.61;75.57
75697;BME280;64312;44.738;20.612;2023-04-10T01:53:14;100794.91;;;8.92;76.73
75697;BME280;64312;44.738;20.612;2023-04-10T01:55:41;100759.84;;;8.69;75.82
75697;BME280;64312;44.738;20.612;2023-04-10T01:58:10;100741.75;;;8.63;75.87
75697;BME280;64312;44.738;20.612;2023-04-10T02:00:41;100775.78;;;8.87;75.18
75697;BME280;64312;44.738;20.612;2023-04-10T02:03:09;100533.09;;;7.44;75.68
75697;BME280;64312;44.738;20.612;2023-04-10T02:08:33;100555.03;;;7.64;75.57
75697;BME280;64312;44.738;20.612;2023-04-10T02:11:12;100572.28;;;7.78;75.20
75697;BME280;64312;44.738;20.612;2023-04-10T02:13:41;100653.56;;;8.19;75.55
75697;BME280;64312;44.738;20.612;2023-04-10T02:16:08;100790.53;;;9.07;74.70
75697;BME280;64312;44.738;20.612;2023-04-10T02:18:35;100783.31;;;9.08;75.34
75697;BME280;64312;44.738;20.612;2023-04-10T02:21:03;100779.63;;;9.09;75.13
75697;BME280;64312;44.738;20.612;2023-04-10T02:23:29;100736.19;;;8.81;75.46
75697;BME280;64312;44.738;20.612;2023-04-10T02:25:55;100714.09;;;8.71;75.72
75697;BME280;64312;44.738;20.612;2023-04-10T02:28:23;100743.56;;;8.87;76.35
75697;BME280;64312;44.738;20.612;2023-04-10T02:30:49;100764.88;;;8.88;75.97
75697;BME280;64312;44.738;20.612;2023-04-10T02:33:15;100816.06;;;9.03;75.41
75697;BME280;64312;44.738;20.612;2023-04-10T02:35:41;100666.78;;;8.29;75.98
75697;BME280;64312;44.738;20.612;2023-04-10T02:38:07;100575.31;;;7.83;75.82
75697;BME280;64312;44.738;20.612;2023-04-10T02:40:35;100749.13;;;8.77;74.76
75697;BME280;64312;44.738;20.612;2023-04-10T02:43:09;100724.81;;;8.54;75.07
75697;BME280;64312;44.738;20.612;2023-04-10T02:45:35;100771.78;;;8.58;75.55
75697;BME280;64312;44.738;20.612;2023-04-10T02:48:01;100732.00;;;8.29;74.75
75697;BME280;64312;44.738;20.612;2023-04-10T02:50:27;100804.16;;;8.57;74.98
75697;BME280;64312;44.738;20.612;2023-04-10T02:52:55;100783.84;;;8.62;76.33
75697;BME280;64312;44.738;20.612;2023-04-10T02:55:21;100776.81;;;8.53;76.61
75697;BME280;64312;44.738;20.612;2023-04-10T02:57:46;100777.31;;;8.73;76.37
75697;BME280;64312;44.738;20.612;2023-04-10T03:00:13;100780.19;;;8.72;75.79
75697;BME280;64312;44.738;20.612;2023-04-10T03:02:57;100755.84;;;8.65;75.20
75697;BME280;64312;44.738;20.612;2023-04-10T03:05:26;100738.25;;;8.38;75.62
75697;BME280;64312;44.738;20.612;2023-04-10T03:07:51;100735.06;;;8.43;76.14
75697;BME280;64312;44.738;20.612;2023-04-10T03:10:18;100765.25;;;8.53;75.84
75697;BME280;64312;44.738;20.612;2023-04-10T03:12:44;100737.41;;;8.46;75.69
75697;BME280;64312;44.738;20.612;2023-04-10T03:15:10;100779.81;;;8.75;76.42
75697;BME280;64312;44.738;20.612;2023-04-10T03:17:37;100776.13;;;8.76;75.98
75697;BME280;64312;44.738;20.612;2023-04-10T03:20:04;100554.53;;;7.44;75.57
75697;BME280;64312;44.738;20.612;2023-04-10T03:22:30;100635.28;;;7.74;76.04
75697;BME280;64312;44.738;20.612;2023-04-10T03:24:58;100812.03;;;8.75;76.61
75697;BME280;64312;44.738;20.612;2023-04-10T03:27:23;100784.03;;;8.77;76.66
75697;BME280;64312;44.738;20.612;2023-04-10T03:29:50;100737.06;;;8.49;76.46
75697;BME280;64312;44.738;20.612;2023-04-10T03:32:15;100783.50;;;8.82;76.71
75697;BME280;64312;44.738;20.612;2023-04-10T03:34:41;100707.91;;;8.37;76.67
75697;BME280;64312;44.738;20.612;2023-04-10T03:37:06;100769.75;;;8.68;76.50
75697;BME280;64312;44.738;20.612;2023-04-10T03:39:33;100685.41;;;8.22;76.67
75697;BME280;64312;44.738;20.612;2023-04-10T03:42:00;100786.72;;;8.85;76.38
75697;BME280;64312;44.738;20.612;2023-04-10T03:44:26;100609.31;;;7.82;76.71
75697;BME280;64312;44.738;20.612;2023-04-10T03:46:52;100774.16;;;8.70;76.28
75697;BME280;64312;44.738;20.612;2023-04-10T03:49:18;100587.84;;;7.58;75.79
75697;BME280;64312;44.738;20.612;2023-04-10T03:51:44;100793.09;;;8.84;75.88
75697;BME280;64312;44.738;20.612;2023-04-10T03:54:10;100582.00;;;7.54;76.78
75697;BME280;64312;44.738;20.612;2023-04-10T03:56:36;100801.81;;;8.86;77.00
75697;BME280;64312;44.738;20.612;2023-04-10T03:59:02;100523.19;;;7.20;76.88
75697;BME280;64312;44.738;20.612;2023-04-10T04:01:27;100606.59;;;7.66;76.61
75697;BME280;64312;44.738;20.612;2023-04-10T04:03:58;100769.78;;;8.52;76.48
75697;BME280;64312;44.738;20.612;2023-04-10T04:06:44;100757.84;;;8.63;76.00
75697;BME280;64312;44.738;20.612;2023-04-10T04:09:30;100709.91;;;8.35;76.28
75697;BME280;64312;44.738;20.612;2023-04-10T04:12:15;100798.97;;;8.72;74.88
75697;BME280;64312;44.738;20.612;2023-04-10T04:14:46;100782.50;;;8.42;76.04
75697;BME280;64312;44.738;20.612;2023-04-10T04:17:24;100787.84;;;8.34;75.45
75697;BME280;64312;44.738;20.612;2023-04-10T04:20:11;100570.88;;;7.17;76.12
75697;BME280;64312;44.738;20.612;2023-04-10T04:22:57;100796.78;;;8.51;76.77
75697;BME280;64312;44.738;20.612;2023-04-10T04:25:41;100799.97;;;8.38;76.25
75697;BME280;64312;44.738;20.612;2023-04-10T04:28:20;100728.97;;;8.08;76.39
75697;BME280;64312;44.738;20.612;2023-04-10T04:31:16;100780.81;;;8.25;75.89
75697;BME280;64312;44.738;20.612;2023-04-10T04:34:02;100803.66;;;8.45;76.34
75697;BME280;64312;44.738;20.612;2023-04-10T04:36:39;100799.59;;;8.41;76.33
75697;BME280;64312;44.738;20.612;2023-04-10T04:39:25;100802.66;;;8.38;76.31
75697;BME280;64312;44.738;20.612;2023-04-10T04:42:14;100807.66;;;8.41;76.84
75697;BME280;64312;44.738;20.612;2023-04-10T04:44:59;100640.41;;;7.43;76.42
75697;BME280;64312;44.738;20.612;2023-04-10T04:47:33;100805.97;;;8.56;76.86
75697;BME280;64312;44.738;20.612;2023-04-10T04:50:20;100741.88;;;8.29;75.53
75697;BME280;64312;44.738;20.612;2023-04-10T04:52:51;100777.47;;;8.55;75.62
75697;BME280;64312;44.738;20.612;2023-04-10T04:55:29;100759.06;;;8.44;75.23
75697;BME280;64312;44.738;20.612;2023-04-10T04:58:01;100836.03;;;8.68;73.66
75697;BME280;64312;44.738;20.612;2023-04-10T05:00:47;100813.19;;;8.48;73.67
75697;BME280;64312;44.738;20.612;2023-04-10T05:03:31;100778.97;;;8.41;73.95
75697;BME280;64312;44.738;20.612;2023-04-10T05:06:12;100695.09;;;7.82;74.67
75697;BME280;64312;44.738;20.612;2023-04-10T05:08:53;100835.69;;;8.79;74.55
75697;BME280;64312;44.738;20.612;2023-04-10T05:11:40;100823.78;;;8.65;73.34
75697;BME280;64312;44.738;20.612;2023-04-10T05:14:35;100815.25;;;8.70;74.13
75697;BME280;64312;44.738;20.612;2023-04-10T05:17:20;100838.22;;;8.73;73.89
75697;BME280;64312;44.738;20.612;2023-04-10T05:20:02;100803.31;;;8.48;74.14
75697;BME280;64312;44.738;20.612;2023-04-10T05:22:39;100841.91;;;8.63;73.87
75697;BME280;64312;44.738;20.612;2023-04-10T05:25:33;100805.31;;;8.54;74.13
75697;BME280;64312;44.738;20.612;2023-04-10T05:28:15;100761.22;;;8.40;74.22
75697;BME280;64312;44.738;20.612;2023-04-10T05:30:57;100809.03;;;8.78;73.77
75697;BME280;64312;44.738;20.612;2023-04-10T05:33:41;100789.22;;;8.62;74.14
75697;BME280;64312;44.738;20.612;2023-04-10T05:36:21;100829.47;;;8.95;73.90
75697;BME280;64312;44.738;20.612;2023-04-10T05:39:00;100855.16;;;8.98;73.64
75697;BME280;64312;44.738;20.612;2023-04-10T05:41:32;100660.59;;;7.96;73.70
75697;BME280;64312;44.738;20.612;2023-04-10T05:44:17;100283.22;;;5.63;72.54
75697;BME280;64312;44.738;20.612;2023-04-10T05:47:01;100578.63;;;7.36;72.68
75697;BME280;64312;44.738;20.612;2023-04-10T05:49:36;100841.91;;;8.96;73.29
75697;BME280;64312;44.738;20.612;2023-04-10T05:52:33;100845.25;;;8.98;73.59
75697;BME280;64312;44.738;20.612;2023-04-10T05:55:02;100767.44;;;8.57;73.19
75697;BME280;64312;44.738;20.612;2023-04-10T05:57:50;100849.13;;;9.04;72.90
75697;BME280;64312;44.738;20.612;2023-04-10T06:00:17;100842.06;;;9.11;71.50
75697;BME280;64312;44.738;20.612;2023-04-10T06:03:09;100818.75;;;8.79;72.34
75697;BME280;64312;44.738;20.612;2023-04-10T06:05:47;100853.28;;;9.14;71.84
75697;BME280;64312;44.738;20.612;2023-04-10T06:08:12;100620.00;;;7.66;71.52
75697;BME280;64312;44.738;20.612;2023-04-10T06:10:38;100828.81;;;8.93;71.73
75697;BME280;64312;44.738;20.612;2023-04-10T06:13:05;100712.38;;;8.21;72.61
75697;BME280;64312;44.738;20.612;2023-04-10T06:15:30;100752.97;;;8.34;72.12
75697;BME280;64312;44.738;20.612;2023-04-10T06:17:56;100800.81;;;8.79;73.15
75697;BME280;64312;44.738;20.612;2023-04-10T06:20:22;100846.44;;;8.95;72.73
75697;BME280;64312;44.738;20.612;2023-04-10T06:22:49;100784.50;;;8.56;72.94
75697;BME280;64312;44.738;20.612;2023-04-10T06:25:14;100812.03;;;8.66;71.98
75697;BME280;64312;44.738;20.612;2023-04-10T06:27:41;100848.13;;;8.97;72.53
75697;BME280;64312;44.738;20.612;2023-04-10T06:30:09;100829.81;;;8.76;71.75
75697;BME280;64312;44.738;20.612;2023-04-10T06:32:35;100836.34;;;9.06;72.29
75697;BME280;64312;44.738;20.612;2023-04-10T06:35:00;100654.91;;;7.99;72.62
75697;BME280;64312;44.738;20.612;2023-04-10T06:37:28;100865.03;;;9.30;71.69
75697;BME280;64312;44.738;20.612;2023-04-10T06:40:08;100630.59;;;8.17;72.58
75697;BME280;64312;44.738;20.612;2023-04-10T06:42:36;100857.63;;;9.48;69.80
75697;BME280;64312;44.738;20.612;2023-04-10T06:45:13;100808.41;;;9.39;71.26
75697;BME280;64312;44.738;20.612;2023-04-10T06:47:39;100812.78;;;9.48;70.56
75697;BME280;64312;44.738;20.612;2023-04-10T06:50:04;100613.66;;;8.40;71.12
75697;BME280;64312;44.738;20.612;2023-04-10T06:52:31;100672.78;;;8.80;70.31
75697;BME280;64312;44.738;20.612;2023-04-10T06:54:57;100834.34;;;9.80;69.49
75697;BME280;64312;44.738;20.612;2023-04-10T06:57:22;100851.06;;;9.98;69.21
75697;BME280;64312;44.738;20.612;2023-04-10T06:59:48;100855.72;;;10.12;69.07
75697;BME280;64312;44.738;20.612;2023-04-10T07:02:14;100789.56;;;9.56;68.15
75697;BME280;64312;44.738;20.612;2023-04-10T07:04:39;100732.41;;;9.14;68.67
75697;BME280;64312;44.738;20.612;2023-04-10T07:07:05;100837.75;;;10.04;68.46
75697;BME280;64312;44.738;20.612;2023-04-10T07:09:34;100820.75;;;10.04;67.14
75697;BME280;64312;44.738;20.612;2023-04-10T07:11:59;100815.81;;;9.85;67.10
75697;BME280;64312;44.738;20.612;2023-04-10T07:14:25;100787.94;;;9.77;67.00
75697;BME280;64312;44.738;20.612;2023-04-10T07:16:51;100863.50;;;10.38;68.06
75697;BME280;64312;44.738;20.612;2023-04-10T07:19:18;100822.59;;;10.12;67.92
75697;BME280;64312;44.738;20.612;2023-04-10T07:21:44;100643.53;;;9.40;67.69
75697;BME280;64312;44.738;20.612;2023-04-10T07:24:09;100804.00;;;10.33;65.22
75697;BME280;64312;44.738;20.612;2023-04-10T07:26:36;100812.97;;;10.25;65.92
75697;BME280;64312;44.738;20.612;2023-04-10T07:29:01;100748.13;;;9.81;64.96
75697;BME280;64312;44.738;20.612;2023-04-10T07:31:27;100335.69;;;7.61;66.44
75697;BME280;64312;44.738;20.612;2023-04-10T07:33:53;100697.16;;;9.88;65.54
75697;BME280;64312;44.738;20.612;2023-04-10T07:36:19;100827.00;;;10.36;64.16
75697;BME280;64312;44.738;20.612;2023-04-10T07:38:44;100880.84;;;10.90;64.09
75697;BME280;64312;44.738;20.612;2023-04-10T07:41:10;100835.66;;;10.77;64.91
75697;BME280;64312;44.738;20.612;2023-04-10T07:43:36;100629.13;;;9.56;64.87
75697;BME280;64312;44.738;20.612;2023-04-10T07:46:02;100774.09;;;10.51;64.31
75697;BME280;64312;44.738;20.612;2023-04-10T07:48:27;100649.03;;;9.70;63.29
75697;BME280;64312;44.738;20.612;2023-04-10T07:50:53;100786.47;;;10.60;64.51
75697;BME280;64312;44.738;20.612;2023-04-10T07:53:19;100904.00;;;11.36;63.64
75697;BME280;64312;44.738;20.612;2023-04-10T07:55:45;100793.97;;;10.88;63.78
75697;BME280;64312;44.738;20.612;2023-04-10T07:58:14;100878.66;;;11.60;61.99
75697;BME280;64312;44.738;20.612;2023-04-10T08:00:40;100813.63;;;11.26;62.18
75697;BME280;64312;44.738;20.612;2023-04-10T08:03:06;100827.50;;;11.52;61.35
75697;BME280;64312;44.738;20.612;2023-04-10T08:05:32;100862.19;;;11.70;61.66
75697;BME280;64312;44.738;20.612;2023-04-10T08:07:58;100761.69;;;11.17;62.12
75697;BME280;64312;44.738;20.612;2023-04-10T08:10:24;100826.13;;;11.56;60.71
75697;BME280;64312;44.738;20.612;2023-04-10T08:12:49;100556.72;;;10.15;61.06
75697;BME280;64312;44.738;20.612;2023-04-10T08:15:16;100831.78;;;11.91;60.93
75697;BME280;64312;44.738;20.612;2023-04-10T08:17:42;100876.69;;;12.28;60.50
75697;BME280;64312;44.738;20.612;2023-04-10T08:20:09;100809.66;;;11.96;60.52
75697;BME280;64312;44.738;20.612;2023-04-10T08:22:35;100455.34;;;9.86;58.76
75697;BME280;64312;44.738;20.612;2023-04-10T08:25:01;100842.94;;;12.17;58.94
75697;BME280;64312;44.738;20.612;2023-04-10T08:27:27;100855.63;;;12.38;60.12
75697;BME280;64312;44.738;20.612;2023-04-10T08:29:53;100874.13;;;12.41;58.24
75697;BME280;64312;44.738;20.612;2023-04-10T08:32:19;100847.34;;;12.40;58.72
75697;BME280;64312;44.738;20.612;2023-04-10T08:34:46;100881.47;;;12.62;57.49
75697;BME280;64312;44.738;20.612;2023-04-10T08:37:11;100910.19;;;12.70;58.14
75697;BME280;64312;44.738;20.612;2023-04-10T08:39:40;100882.34;;;12.69;59.36
75697;BME280;64312;44.738;20.612;2023-04-10T08:42:06;100810.56;;;12.39;59.70
75697;BME280;64312;44.738;20.612;2023-04-10T08:44:32;100843.53;;;12.34;57.44
75697;BME280;64312;44.738;20.612;2023-04-10T08:47:01;100854.78;;;12.38;59.17
75697;BME280;64312;44.738;20.612;2023-04-10T08:49:40;100872.72;;;12.82;59.33
75697;BME280;64312;44.738;20.612;2023-04-10T08:52:15;100697.69;;;12.06;57.27
75697;BME280;64312;44.738;20.612;2023-04-10T08:54:47;100825.72;;;13.04;57.73
75697;BME280;64312;44.738;20.612;2023-04-10T08:57:16;100832.75;;;13.26;57.64
75697;BME280;64312;44.738;20.612;2023-04-10T08:59:48;100649.53;;;12.31;56.85
75697;BME280;64312;44.738;20.612;2023-04-10T09:02:14;100805.56;;;13.28;55.94
75697;BME280;64312;44.738;20.612;2023-04-10T09:04:46;100753.84;;;13.16;55.82
75697;BME280;64312;44.738;20.612;2023-04-10T09:07:13;100820.94;;;13.62;55.04
75697;BME280;64312;44.738;20.612;2023-04-10T09:09:39;100861.97;;;13.66;55.88
75697;BME280;64312;44.738;20.612;2023-04-10T09:12:05;100858.69;;;13.77;56.89
75697;BME280;64312;44.738;20.612;2023-04-10T09:14:32;100834.47;;;13.62;56.63
75697;BME280;64312;44.738;20.612;2023-04-10T09:17:18;100859.72;;;13.76;55.92
75697;BME280;64312;44.738;20.612;2023-04-10T09:19:51;100862.06;;;13.79;54.67
75697;BME280;64312;44.738;20.612;2023-04-10T09:22:28;100590.25;;;11.95;53.43
75697;BME280;64312;44.738;20.612;2023-04-10T09:24:54;100683.31;;;12.48;55.07
75697;BME280;64312;44.738;20.612;2023-04-10T09:27:35;100866.69;;;13.57;55.27
75697;BME280;64312;44.738;20.612;2023-04-10T09:30:02;100866.69;;;13.57;56.19
75697;BME280;64312;44.738;20.612;2023-04-10T09:32:44;100788.34;;;13.36;55.86
75697;BME280;64312;44.738;20.612;2023-04-10T09:35:15;100747.13;;;13.06;56.69
75697;BME280;64312;44.738;20.612;2023-04-10T09:37:42;100830.47;;;13.58;55.65
75697;BME280;64312;44.738;20.612;2023-04-10T09:40:23;100614.81;;;12.28;56.19
75697;BME280;64312;44.738;20.612;2023-04-10T09:42:50;100767.34;;;13.10;56.71
75697;BME280;64312;44.738;20.612;2023-04-10T09:45:15;100597.75;;;12.21;56.00
75697;BME280;64312;44.738;20.612;2023-04-10T09:48:05;100801.69;;;13.16;56.19
75697;BME280;64312;44.738;20.612;2023-04-10T09:50:36;100624.94;;;12.19;55.77
75697;BME280;64312;44.738;20.612;2023-04-10T09:53:02;100654.94;;;12.31;56.10
75697;BME280;64312;44.738;20.612;2023-04-10T09:55:29;100808.97;;;13.15;57.30
75697;BME280;64312;44.738;20.612;2023-04-10T09:57:56;100787.47;;;13.07;55.77
75697;BME280;64312;44.738;20.612;2023-04-10T10:00:23;100771.06;;;13.09;54.72
75697;BME280;64312;44.738;20.612;2023-04-10T10:02:49;100606.72;;;12.00;55.27
75697;BME280;64312;44.738;20.612;2023-04-10T10:05:16;100798.47;;;13.27;55.55
75697;BME280;64312;44.738;20.612;2023-04-10T10:07:43;100813.41;;;13.58;56.91
75697;BME280;64312;44.738;20.612;2023-04-10T10:10:11;100810.59;;;13.72;55.12
75697;BME280;64312;44.738;20.612;2023-04-10T10:12:45;100674.53;;;12.96;55.94
75697;BME280;64312;44.738;20.612;2023-04-10T10:15:17;100804.44;;;13.92;56.09
75697;BME280;64312;44.738;20.612;2023-04-10T10:20:54;100743.59;;;13.81;52.91
75697;BME280;64312;44.738;20.612;2023-04-10T10:23:20;100803.75;;;14.31;52.25
75697;BME280;64312;44.738;20.612;2023-04-10T10:25:48;100820.28;;;14.49;54.34
75697;BME280;64312;44.738;20.612;2023-04-10T10:28:15;100726.41;;;14.15;53.42
75697;BME280;64312;44.738;20.612;2023-04-10T10:30:41;100805.28;;;14.80;50.55
75697;BME280;64312;44.738;20.612;2023-04-10T10:33:07;100687.06;;;14.19;51.29
75697;BME280;64312;44.738;20.612;2023-04-10T10:35:36;100793.41;;;14.81;50.73
75697;BME280;64312;44.738;20.612;2023-04-10T10:38:05;100768.59;;;14.97;50.63
75697;BME280;64312;44.738;20.612;2023-04-10T10:43:35;100800.22;;;15.56;49.37
75697;BME280;64312;44.738;20.612;2023-04-10T10:46:13;100795.41;;;15.52;48.17
75697;BME280;64312;44.738;20.612;2023-04-10T10:48:54;100779.59;;;15.35;48.74
75697;BME280;64312;44.738;20.612;2023-04-10T10:51:20;100565.63;;;14.23;48.27
75697;BME280;64312;44.738;20.612;2023-04-10T10:53:45;100791.84;;;15.58;49.75
75697;BME280;64312;44.738;20.612;2023-04-10T10:58:48;100740.44;;;15.83;48.85
75697;BME280;64312;44.738;20.612;2023-04-10T11:01:14;100760.25;;;15.83;48.71
75697;BME280;64312;44.738;20.612;2023-04-10T11:03:40;100754.06;;;15.69;50.02
75697;BME280;64312;44.738;20.612;2023-04-10T11:06:11;100702.34;;;15.44;47.95
75697;BME280;64312;44.738;20.612;2023-04-10T11:08:40;100548.56;;;15.00;47.70
75697;BME280;64312;44.738;20.612;2023-04-10T11:11:17;100783.13;;;16.45;48.26
75697;BME280;64312;44.738;20.612;2023-04-10T11:16:40;100732.50;;;16.51;47.16
75697;BME280;64312;44.738;20.612;2023-04-10T11:19:07;100755.13;;;16.76;47.17
75697;BME280;64312;44.738;20.612;2023-04-10T11:21:33;100704.50;;;16.50;45.78
75697;BME280;64312;44.738;20.612;2023-04-10T11:31:26;100685.19;;;16.02;44.89
75697;BME280;64312;44.738;20.612;2023-04-10T11:36:25;100536.44;;;15.09;44.54
75697;BME280;64312;44.738;20.612;2023-04-10T11:41:31;100692.41;;;16.15;46.01
75697;BME280;64312;44.738;20.612;2023-04-10T11:44:02;100731.50;;;16.45;46.42
75697;BME280;64312;44.738;20.612;2023-04-10T11:46:28;100593.53;;;15.66;44.89
75697;BME280;64312;44.738;20.612;2023-04-10T11:49:01;100697.66;;;16.41;44.02
75697;BME280;64312;44.738;20.612;2023-04-10T11:51:28;100707.13;;;16.89;42.28
75697;BME280;64312;44.738;20.612;2023-04-10T11:54:24;100556.41;;;16.35;42.35
75697;BME280;64312;44.738;20.612;2023-04-10T11:59:27;100661.44;;;16.72;43.71
75697;BME280;64312;44.738;20.612;2023-04-10T12:02:12;100573.78;;;16.34;42.39
75697;BME280;64312;44.738;20.612;2023-04-10T12:04:42;100545.72;;;16.40;42.69
75697;BME280;64312;44.738;20.612;2023-04-10T12:07:08;100681.75;;;16.95;42.68
75697;BME280;64312;44.738;20.612;2023-04-10T12:09:34;100452.69;;;15.51;41.29
75697;BME280;64312;44.738;20.612;2023-04-10T12:12:01;100684.41;;;17.01;41.22
75697;BME280;64312;44.738;20.612;2023-04-10T12:14:39;100680.78;;;17.08;42.49
75697;BME280;64312;44.738;20.612;2023-04-10T12:17:07;100661.78;;;16.83;41.40
75697;BME280;64312;44.738;20.612;2023-04-10T12:19:33;100660.88;;;16.89;42.39
75697;BME280;64312;44.738;20.612;2023-04-10T12:21:59;100629.47;;;16.74;41.79
75697;BME280;64312;44.738;20.612;2023-04-10T12:24:46;100470.44;;;16.04;42.67
75697;BME280;64312;44.738;20.612;2023-04-10T12:29:49;100682.28;;;17.03;41.03
75697;BME280;64312;44.738;20.612;2023-04-10T12:32:15;100630.75;;;16.65;39.48
75697;BME280;64312;44.738;20.612;2023-04-10T12:34:41;100612.13;;;16.87;38.95
75697;BME280;64312;44.738;20.612;2023-04-10T12:37:14;100646.00;;;17.46;39.32
75697;BME280;64312;44.738;20.612;2023-04-10T12:39:40;100581.72;;;17.45;39.72
75697;BME280;64312;44.738;20.612;2023-04-10T12:44:55;100605.19;;;17.28;40.57
75697;BME280;64312;44.738;20.612;2023-04-10T12:47:22;100407.09;;;15.66;40.13
75697;BME280;64312;44.738;20.612;2023-04-10T12:50:07;100652.88;;;16.75;40.90
75697;BME280;64312;44.738;20.612;2023-04-10T12:52:34;100494.72;;;15.42;42.32
75697;BME280;64312;44.738;20.612;2023-04-10T12:55:13;100655.84;;;15.86;43.13
75697;BME280;64312;44.738;20.612;2023-04-10T12:57:41;100628.72;;;15.41;44.50
75697;BME280;64312;44.738;20.612;2023-04-10T13:00:08;100614.09;;;14.90;45.54
75697;BME280;64312;44.738;20.612;2023-04-10T13:02:36;100669.50;;;15.14;48.80
75697;BME280;64312;44.738;20.612;2023-04-10T13:05:02;100648.75;;;14.75;46.67
75697;BME280;64312;44.738;20.612;2023-04-10T13:07:28;100616.66;;;14.46;46.70
75697;BME280;64312;44.738;20.612;2023-04-10T13:09:54;100612.06;;;14.33;48.01
75697;BME280;64312;44.738;20.612;2023-04-10T13:12:20;100663.34;;;14.48;47.74
75697;BME280;64312;44.738;20.612;2023-04-10T13:14:46;100648.09;;;14.27;48.59
75697;BME280;64312;44.738;20.612;2023-04-10T13:17:12;100626.44;;;14.07;49.07
75697;BME280;64312;44.738;20.612;2023-04-10T13:19:37;100607.88;;;13.91;50.14
75697;BME280;64312;44.738;20.612;2023-04-10T13:22:03;100537.91;;;13.48;49.23
75697;BME280;64312;44.738;20.612;2023-04-10T13:24:29;100590.63;;;13.92;50.30
75697;BME280;64312;44.738;20.612;2023-04-10T13:26:55;100633.94;;;14.31;48.30
75697;BME280;64312;44.738;20.612;2023-04-10T13:29:23;100423.00;;;13.11;45.57
75697;BME280;64312;44.738;20.612;2023-04-10T13:31:48;100544.78;;;14.10;46.60
75697;BME280;64312;44.738;20.612;2023-04-10T13:34:14;100560.22;;;14.09;46.16
75697;BME280;64312;44.738;20.612;2023-04-10T13:36:40;100428.69;;;13.62;47.30
75697;BME280;64312;44.738;20.612;2023-04-10T13:39:06;100587.22;;;14.82;45.10
75697;BME280;64312;44.738;20.612;2023-04-10T13:41:31;100626.78;;;15.03;46.01